Česky Dansk Deutsch English Español Suomi Français Magyar Italiano Nederlands norsk Polski Português svenska Türkçe

 

Het Weer

Notodden (Noorwegen)

14:50, 12 april 2016 (GMT)

NWNNE
WE
SWSSE
Home            
Notodden Skien-Geiteryggen Torp Oseberg Oslo / Fornebu Rygge Dagali Oslo / Gardermoen Fagernes Leirin Kristiansand / Kjevik Voss-Bo Sogndal / Haukasen Stavanger / Sola Stord / Soerstokken Lista Flyplass Trollhattan Private Haugesund / Karmoy Karlstad Bergen / Flesland Satenas Sindal Flyveplads Karlstad Flygplats Goteborg / Save

Om een weerknop op uw website of weblog te plaatsen, copieer onderstaande code en plak die in uw pagina. In het eerste vakje staat HTML-code, in het tweede vakje UBB-code.


Add to Google

Details

Wind speed:2 bf, 5 kn, 2.6 m/s, 5.8 miles/h, 9.3 km/h
Wind direction:SE, 140°
Visibility:Greater than 10000 m, 10 km, 32800 ft, 6.2 miles
Clouds:CAVOC
Temperature:15°C, 59°F
Dew-point:-2°C, 28°F
Atmospheric pressure:1014 hPa, 760.6 mmHg, 29.94 inHg, 1.001 atm
Relative humidity:30.9 %
METAR:ENNO 121450Z 14005KT CAVOK 15/M02 Q1014

Snelkoppelingen

Actuele weersinformatie van de hele wereld. Voeg locaties toe met het plus (+) symbool. Deze snelkoppelingen kunnen worden toegevoegd aan Google.

Lid van de Technetium groep

website free tracking
StatCounter NetStat W3C Validator

15-08-2022 09:08:04
astro.technetium.be money.technetium.be phote.technetium.be tafeltennistafel.technetium.be www.ligfiets.net